sensor_id;sensor_type;location;lat;lon;timestamp;P1;P2;P0
26720;PMS1003;15950;51.112;6.966;2022-12-10T00:02:06;028;025;
26720;PMS1003;15950;51.112;6.966;2022-12-10T00:05:06;030;021;
26720;PMS1003;15950;51.112;6.966;2022-12-10T00:08:06;028;020;
26720;PMS1003;15950;51.112;6.966;2022-12-10T00:11:07;030;021;
26720;PMS1003;15950;51.112;6.966;2022-12-10T00:14:06;023;018;
26720;PMS1003;15950;51.112;6.966;2022-12-10T00:17:06;030;021;
26720;PMS1003;15950;51.112;6.966;2022-12-10T00:20:06;026;018;
26720;PMS1003;15950;51.112;6.966;2022-12-10T00:23:06;026;018;
26720;PMS1003;15950;51.112;6.966;2022-12-10T00:26:10;028;020;
26720;PMS1003;15950;51.112;6.966;2022-12-10T00:29:07;025;020;
26720;PMS1003;15950;51.112;6.966;2022-12-10T00:32:06;027;019;
26720;PMS1003;15950;51.112;6.966;2022-12-10T00:35:06;024;017;
26720;PMS1003;15950;51.112;6.966;2022-12-10T00:38:06;030;021;
26720;PMS1003;15950;51.112;6.966;2022-12-10T00:41:06;032;023;
26720;PMS1003;15950;51.112;6.966;2022-12-10T00:44:06;035;026;
26720;PMS1003;15950;51.112;6.966;2022-12-10T00:47:06;027;021;
26720;PMS1003;15950;51.112;6.966;2022-12-10T00:50:06;028;020;
26720;PMS1003;15950;51.112;6.966;2022-12-10T00:53:06;027;019;
26720;PMS1003;15950;51.112;6.966;2022-12-10T00:56:07;028;022;
26720;PMS1003;15950;51.112;6.966;2022-12-10T00:59:06;027;020;
26720;PMS1003;15950;51.112;6.966;2022-12-10T01:02:06;030;021;
26720;PMS1003;15950;51.112;6.966;2022-12-10T01:05:06;028;020;
26720;PMS1003;15950;51.112;6.966;2022-12-10T01:08:06;028;020;
26720;PMS1003;15950;51.112;6.966;2022-12-10T01:11:06;028;020;
26720;PMS1003;15950;51.112;6.966;2022-12-10T01:14:07;020;014;
26720;PMS1003;15950;51.112;6.966;2022-12-10T01:17:06;023;017;
26720;PMS1003;15950;51.112;6.966;2022-12-10T01:20:06;027;021;
26720;PMS1003;15950;51.112;6.966;2022-12-10T01:23:06;030;021;
26720;PMS1003;15950;51.112;6.966;2022-12-10T01:26:08;030;025;
26720;PMS1003;15950;51.112;6.966;2022-12-10T01:29:06;021;018;
26720;PMS1003;15950;51.112;6.966;2022-12-10T01:32:06;030;021;
26720;PMS1003;15950;51.112;6.966;2022-12-10T01:35:06;024;017;
26720;PMS1003;15950;51.112;6.966;2022-12-10T01:38:06;027;022;
26720;PMS1003;15950;51.112;6.966;2022-12-10T01:41:07;026;018;
26720;PMS1003;15950;51.112;6.966;2022-12-10T01:47:06;024;017;
26720;PMS1003;15950;51.112;6.966;2022-12-10T01:50:06;031;022;
26720;PMS1003;15950;51.112;6.966;2022-12-10T01:53:06;032;025;
26720;PMS1003;15950;51.112;6.966;2022-12-10T01:56:06;028;020;
26720;PMS1003;15950;51.112;6.966;2022-12-10T01:59:06;024;019;
26720;PMS1003;15950;51.112;6.966;2022-12-10T02:14:12;024;018;
26720;PMS1003;15950;51.112;6.966;2022-12-10T02:17:08;025;018;
26720;PMS1003;15950;51.112;6.966;2022-12-10T02:20:08;032;024;
26720;PMS1003;15950;51.112;6.966;2022-12-10T02:32:07;021;015;
26720;PMS1003;15950;51.112;6.966;2022-12-10T02:35:07;026;018;
26720;PMS1003;15950;51.112;6.966;2022-12-10T02:41:08;026;018;
26720;PMS1003;15950;51.112;6.966;2022-12-10T02:44:07;019;013;
26720;PMS1003;15950;51.112;6.966;2022-12-10T02:47:06;021;015;
26720;PMS1003;15950;51.112;6.966;2022-12-10T02:50:06;024;017;
26720;PMS1003;15950;51.112;6.966;2022-12-10T02:53:06;026;025;
26720;PMS1003;15950;51.112;6.966;2022-12-10T02:59:12;020;014;
26720;PMS1003;15950;51.112;6.966;2022-12-10T03:02:07;027;022;
26720;PMS1003;15950;51.112;6.966;2022-12-10T03:08:12;021;015;
26720;PMS1003;15950;51.112;6.966;2022-12-10T03:17:06;019;017;
26720;PMS1003;15950;51.112;6.966;2022-12-10T03:20:07;026;018;
26720;PMS1003;15950;51.112;6.966;2022-12-10T03:23:07;020;014;
26720;PMS1003;15950;51.112;6.966;2022-12-10T03:26:07;023;019;
26720;PMS1003;15950;51.112;6.966;2022-12-10T03:29:08;030;021;
26720;PMS1003;15950;51.112;6.966;2022-12-10T03:32:06;028;020;
26720;PMS1003;15950;51.112;6.966;2022-12-10T03:35:06;027;020;
26720;PMS1003;15950;51.112;6.966;2022-12-10T03:38:06;030;021;
26720;PMS1003;15950;51.112;6.966;2022-12-10T03:41:06;024;021;
26720;PMS1003;15950;51.112;6.966;2022-12-10T03:44:06;031;022;
26720;PMS1003;15950;51.112;6.966;2022-12-10T03:47:06;022;016;
26720;PMS1003;15950;51.112;6.966;2022-12-10T03:50:06;030;022;
26720;PMS1003;15950;51.112;6.966;2022-12-10T03:53:06;023;016;
26720;PMS1003;15950;51.112;6.966;2022-12-10T03:56:06;025;019;
26720;PMS1003;15950;51.112;6.966;2022-12-10T03:59:06;022;020;
26720;PMS1003;15950;51.112;6.966;2022-12-10T04:02:06;026;018;
26720;PMS1003;15950;51.112;6.966;2022-12-10T04:05:06;027;019;
26720;PMS1003;15950;51.112;6.966;2022-12-10T04:08:06;029;023;
26720;PMS1003;15950;51.112;6.966;2022-12-10T04:11:07;026;018;
26720;PMS1003;15950;51.112;6.966;2022-12-10T04:14:07;028;020;
26720;PMS1003;15950;51.112;6.966;2022-12-10T04:17:06;023;016;
26720;PMS1003;15950;51.112;6.966;2022-12-10T04:20:06;028;020;
26720;PMS1003;15950;51.112;6.966;2022-12-10T04:23:07;028;020;
26720;PMS1003;15950;51.112;6.966;2022-12-10T04:26:06;034;026;
26720;PMS1003;15950;51.112;6.966;2022-12-10T04:29:06;028;024;
26720;PMS1003;15950;51.112;6.966;2022-12-10T04:32:06;031;022;
26720;PMS1003;15950;51.112;6.966;2022-12-10T04:35:06;030;022;
26720;PMS1003;15950;51.112;6.966;2022-12-10T04:38:06;027;020;
26720;PMS1003;15950;51.112;6.966;2022-12-10T04:41:06;028;020;
26720;PMS1003;15950;51.112;6.966;2022-12-10T04:44:06;030;024;
26720;PMS1003;15950;51.112;6.966;2022-12-10T04:47:06;028;020;
26720;PMS1003;15950;51.112;6.966;2022-12-10T04:50:06;027;019;
26720;PMS1003;15950;51.112;6.966;2022-12-10T04:53:06;024;017;
26720;PMS1003;15950;51.112;6.966;2022-12-10T04:56:06;021;018;
26720;PMS1003;15950;51.112;6.966;2022-12-10T04:59:06;030;021;
26720;PMS1003;15950;51.112;6.966;2022-12-10T05:02:06;028;020;
26720;PMS1003;15950;51.112;6.966;2022-12-10T05:05:06;026;019;
26720;PMS1003;15950;51.112;6.966;2022-12-10T05:08:06;025;018;
26720;PMS1003;15950;51.112;6.966;2022-12-10T05:11:10;026;020;
26720;PMS1003;15950;51.112;6.966;2022-12-10T05:14:06;026;018;
26720;PMS1003;15950;51.112;6.966;2022-12-10T05:17:06;030;021;
26720;PMS1003;15950;51.112;6.966;2022-12-10T05:20:06;034;025;
26720;PMS1003;15950;51.112;6.966;2022-12-10T05:23:07;031;022;
26720;PMS1003;15950;51.112;6.966;2022-12-10T05:29:06;024;017;
26720;PMS1003;15950;51.112;6.966;2022-12-10T05:32:06;026;018;
26720;PMS1003;15950;51.112;6.966;2022-12-10T05:35:06;031;022;
26720;PMS1003;15950;51.112;6.966;2022-12-10T05:38:06;031;022;
26720;PMS1003;15950;51.112;6.966;2022-12-10T05:41:07;032;023;
26720;PMS1003;15950;51.112;6.966;2022-12-10T05:44:06;033;026;
26720;PMS1003;15950;51.112;6.966;2022-12-10T05:47:06;029;023;
26720;PMS1003;15950;51.112;6.966;2022-12-10T05:50:06;031;024;
26720;PMS1003;15950;51.112;6.966;2022-12-10T05:53:06;027;019;
26720;PMS1003;15950;51.112;6.966;2022-12-10T05:56:07;038;027;
26720;PMS1003;15950;51.112;6.966;2022-12-10T05:59:06;026;018;
26720;PMS1003;15950;51.112;6.966;2022-12-10T06:02:06;025;020;
26720;PMS1003;15950;51.112;6.966;2022-12-10T06:05:06;037;026;
26720;PMS1003;15950;51.112;6.966;2022-12-10T06:08:06;029;022;
26720;PMS1003;15950;51.112;6.966;2022-12-10T06:11:07;027;020;
26720;PMS1003;15950;51.112;6.966;2022-12-10T06:14:06;030;025;
26720;PMS1003;15950;51.112;6.966;2022-12-10T06:17:06;037;026;
26720;PMS1003;15950;51.112;6.966;2022-12-10T06:20:06;033;026;
26720;PMS1003;15950;51.112;6.966;2022-12-10T06:23:06;031;022;
26720;PMS1003;15950;51.112;6.966;2022-12-10T06:29:06;027;019;
26720;PMS1003;15950;51.112;6.966;2022-12-10T06:32:06;034;024;
26720;PMS1003;15950;51.112;6.966;2022-12-10T06:35:06;024;018;
26720;PMS1003;15950;51.112;6.966;2022-12-10T06:38:06;031;022;
26720;PMS1003;15950;51.112;6.966;2022-12-10T06:41:07;027;021;
26720;PMS1003;15950;51.112;6.966;2022-12-10T06:44:09;031;022;
26720;PMS1003;15950;51.112;6.966;2022-12-10T06:47:06;024;017;
26720;PMS1003;15950;51.112;6.966;2022-12-10T06:50:06;032;025;
26720;PMS1003;15950;51.112;6.966;2022-12-10T06:53:06;023;017;
26720;PMS1003;15950;51.112;6.966;2022-12-10T06:56:06;030;021;
26720;PMS1003;15950;51.112;6.966;2022-12-10T06:59:06;027;023;
26720;PMS1003;15950;51.112;6.966;2022-12-10T07:02:07;027;019;
26720;PMS1003;15950;51.112;6.966;2022-12-10T07:05:06;029;023;
26720;PMS1003;15950;51.112;6.966;2022-12-10T07:08:06;028;022;
26720;PMS1003;15950;51.112;6.966;2022-12-10T07:11:07;037;028;
26720;PMS1003;15950;51.112;6.966;2022-12-10T07:14:06;032;024;
26720;PMS1003;15950;51.112;6.966;2022-12-10T07:17:06;032;023;
26720;PMS1003;15950;51.112;6.966;2022-12-10T07:20:06;037;026;
26720;PMS1003;15950;51.112;6.966;2022-12-10T07:23:06;033;023;
26720;PMS1003;15950;51.112;6.966;2022-12-10T07:26:06;032;023;
26720;PMS1003;15950;51.112;6.966;2022-12-10T07:29:06;032;026;
26720;PMS1003;15950;51.112;6.966;2022-12-10T07:32:06;028;020;
26720;PMS1003;15950;51.112;6.966;2022-12-10T07:35:06;030;021;
26720;PMS1003;15950;51.112;6.966;2022-12-10T07:38:06;031;022;
26720;PMS1003;15950;51.112;6.966;2022-12-10T07:41:06;034;027;
26720;PMS1003;15950;51.112;6.966;2022-12-10T07:44:06;033;025;
26720;PMS1003;15950;51.112;6.966;2022-12-10T07:47:06;026;018;
26720;PMS1003;15950;51.112;6.966;2022-12-10T07:50:06;027;019;
26720;PMS1003;15950;51.112;6.966;2022-12-10T07:53:06;030;021;
26720;PMS1003;15950;51.112;6.966;2022-12-10T07:56:06;030;022;
26720;PMS1003;15950;51.112;6.966;2022-12-10T07:59:06;025;021;
26720;PMS1003;15950;51.112;6.966;2022-12-10T08:02:07;030;021;
26720;PMS1003;15950;51.112;6.966;2022-12-10T08:05:06;031;022;
26720;PMS1003;15950;51.112;6.966;2022-12-10T08:08:06;033;023;
26720;PMS1003;15950;51.112;6.966;2022-12-10T08:11:06;028;021;
26720;PMS1003;15950;51.112;6.966;2022-12-10T08:14:06;027;019;
26720;PMS1003;15950;51.112;6.966;2022-12-10T08:17:06;030;021;
26720;PMS1003;15950;51.112;6.966;2022-12-10T08:20:06;033;023;
26720;PMS1003;15950;51.112;6.966;2022-12-10T08:23:06;033;025;
26720;PMS1003;15950;51.112;6.966;2022-12-10T08:29:06;036;026;
26720;PMS1003;15950;51.112;6.966;2022-12-10T08:32:06;034;024;
26720;PMS1003;15950;51.112;6.966;2022-12-10T08:35:06;034;024;
26720;PMS1003;15950;51.112;6.966;2022-12-10T08:38:06;028;020;
26720;PMS1003;15950;51.112;6.966;2022-12-10T08:41:14;037;026;
26720;PMS1003;15950;51.112;6.966;2022-12-10T08:44:06;036;026;
26720;PMS1003;15950;51.112;6.966;2022-12-10T08:47:06;034;024;
26720;PMS1003;15950;51.112;6.966;2022-12-10T08:50:06;035;026;
26720;PMS1003;15950;51.112;6.966;2022-12-10T08:53:06;030;021;
26720;PMS1003;15950;51.112;6.966;2022-12-10T08:56:06;042;030;
26720;PMS1003;15950;51.112;6.966;2022-12-10T08:59:06;037;026;
26720;PMS1003;15950;51.112;6.966;2022-12-10T09:02:07;037;030;
26720;PMS1003;15950;51.112;6.966;2022-12-10T09:05:06;040;028;
26720;PMS1003;15950;51.112;6.966;2022-12-10T09:08:06;035;025;
26720;PMS1003;15950;51.112;6.966;2022-12-10T09:14:06;036;027;
26720;PMS1003;15950;51.112;6.966;2022-12-10T09:17:06;047;033;
26720;PMS1003;15950;51.112;6.966;2022-12-10T09:20:06;038;027;
26720;PMS1003;15950;51.112;6.966;2022-12-10T09:23:06;044;033;
26720;PMS1003;15950;51.112;6.966;2022-12-10T09:26:09;046;033;
26720;PMS1003;15950;51.112;6.966;2022-12-10T09:29:06;038;027;
26720;PMS1003;15950;51.112;6.966;2022-12-10T09:32:06;048;035;
26720;PMS1003;15950;51.112;6.966;2022-12-10T09:35:06;051;039;
26720;PMS1003;15950;51.112;6.966;2022-12-10T09:38:06;044;031;
26720;PMS1003;15950;51.112;6.966;2022-12-10T09:47:07;040;028;
26720;PMS1003;15950;51.112;6.966;2022-12-10T09:53:07;041;029;
26720;PMS1003;15950;51.112;6.966;2022-12-10T09:56:06;038;027;
26720;PMS1003;15950;51.112;6.966;2022-12-10T10:08:52;049;035;
26720;PMS1003;15950;51.112;6.966;2022-12-10T10:11:08;052;037;
26720;PMS1003;15950;51.112;6.966;2022-12-10T10:14:09;038;027;
26720;PMS1003;15950;51.112;6.966;2022-12-10T10:20:06;033;029;
26720;PMS1003;15950;51.112;6.966;2022-12-10T10:23:06;047;033;
26720;PMS1003;15950;51.112;6.966;2022-12-10T10:26:05;054;039;
26720;PMS1003;15950;51.112;6.966;2022-12-10T10:29:07;044;031;
26720;PMS1003;15950;51.112;6.966;2022-12-10T10:35:06;046;036;
26720;PMS1003;15950;51.112;6.966;2022-12-10T10:38:06;047;033;
26720;PMS1003;15950;51.112;6.966;2022-12-10T10:41:05;044;031;
26720;PMS1003;15950;51.112;6.966;2022-12-10T10:44:12;050;036;
26720;PMS1003;15950;51.112;6.966;2022-12-10T10:47:23;043;035;
26720;PMS1003;15950;51.112;6.966;2022-12-10T10:50:06;042;030;
26720;PMS1003;15950;51.112;6.966;2022-12-10T10:59:29;039;030;
26720;PMS1003;15950;51.112;6.966;2022-12-10T11:08:08;040;033;
26720;PMS1003;15950;51.112;6.966;2022-12-10T11:11:09;042;030;
26720;PMS1003;15950;51.112;6.966;2022-12-10T11:23:09;042;030;
26720;PMS1003;15950;51.112;6.966;2022-12-10T11:35:09;040;028;
26720;PMS1003;15950;51.112;6.966;2022-12-10T11:38:09;051;037;
26720;PMS1003;15950;51.112;6.966;2022-12-10T12:02:23;043;032;
26720;PMS1003;15950;51.112;6.966;2022-12-10T12:11:08;038;030;
26720;PMS1003;15950;51.112;6.966;2022-12-10T12:23:49;026;018;
26720;PMS1003;15950;51.112;6.966;2022-12-10T12:26:06;026;018;
26720;PMS1003;15950;51.112;6.966;2022-12-10T12:32:10;026;018;
26720;PMS1003;15950;51.112;6.966;2022-12-10T12:35:17;029;023;
26720;PMS1003;15950;51.112;6.966;2022-12-10T12:41:10;035;025;
26720;PMS1003;15950;51.112;6.966;2022-12-10T12:47:55;031;023;
26720;PMS1003;15950;51.112;6.966;2022-12-10T12:50:11;041;032;
26720;PMS1003;15950;51.112;6.966;2022-12-10T12:53:06;031;022;
26720;PMS1003;15950;51.112;6.966;2022-12-10T12:59:11;033;023;
26720;PMS1003;15950;51.112;6.966;2022-12-10T13:05:08;066;047;
26720;PMS1003;15950;51.112;6.966;2022-12-10T13:26:16;036;027;
26720;PMS1003;15950;51.112;6.966;2022-12-10T13:32:12;029;026;
26720;PMS1003;15950;51.112;6.966;2022-12-10T13:38:17;043;032;
26720;PMS1003;15950;51.112;6.966;2022-12-10T13:41:06;033;023;
26720;PMS1003;15950;51.112;6.966;2022-12-10T13:44:24;035;028;
26720;PMS1003;15950;51.112;6.966;2022-12-10T13:50:06;033;023;
26720;PMS1003;15950;51.112;6.966;2022-12-10T13:59:10;041;032;
26720;PMS1003;15950;51.112;6.966;2022-12-10T14:08:05;030;025;
26720;PMS1003;15950;51.112;6.966;2022-12-10T14:11:06;034;026;
26720;PMS1003;15950;51.112;6.966;2022-12-10T14:14:08;040;028;
26720;PMS1003;15950;51.112;6.966;2022-12-10T14:17:06;033;023;
26720;PMS1003;15950;51.112;6.966;2022-12-10T14:20:06;034;024;
26720;PMS1003;15950;51.112;6.966;2022-12-10T14:23:19;044;034;
26720;PMS1003;15950;51.112;6.966;2022-12-10T14:29:16;044;031;
26720;PMS1003;15950;51.112;6.966;2022-12-10T14:32:05;030;021;
26720;PMS1003;15950;51.112;6.966;2022-12-10T14:38:05;030;021;
26720;PMS1003;15950;51.112;6.966;2022-12-10T14:41:05;037;026;
26720;PMS1003;15950;51.112;6.966;2022-12-10T14:44:05;035;025;
26720;PMS1003;15950;51.112;6.966;2022-12-10T14:47:10;044;031;
26720;PMS1003;15950;51.112;6.966;2022-12-10T14:50:06;031;022;
26720;PMS1003;15950;51.112;6.966;2022-12-10T14:53:08;034;024;
26720;PMS1003;15950;51.112;6.966;2022-12-10T14:56:05;028;020;
26720;PMS1003;15950;51.112;6.966;2022-12-10T14:59:11;034;024;
26720;PMS1003;15950;51.112;6.966;2022-12-10T15:08:06;031;022;
26720;PMS1003;15950;51.112;6.966;2022-12-10T15:11:05;031;025;
26720;PMS1003;15950;51.112;6.966;2022-12-10T15:14:05;040;028;
26720;PMS1003;15950;51.112;6.966;2022-12-10T15:17:31;035;025;
26720;PMS1003;15950;51.112;6.966;2022-12-10T15:20:28;037;026;
26720;PMS1003;15950;51.112;6.966;2022-12-10T15:23:07;033;023;
26720;PMS1003;15950;51.112;6.966;2022-12-10T15:32:08;025;019;
26720;PMS1003;15950;51.112;6.966;2022-12-10T15:35:05;029;022;
26720;PMS1003;15950;51.112;6.966;2022-12-10T15:38:09;033;023;
26720;PMS1003;15950;51.112;6.966;2022-12-10T15:44:14;026;018;
26720;PMS1003;15950;51.112;6.966;2022-12-10T15:50:05;037;027;
26720;PMS1003;15950;51.112;6.966;2022-12-10T15:53:08;039;034;
26720;PMS1003;15950;51.112;6.966;2022-12-10T15:56:05;038;027;
26720;PMS1003;15950;51.112;6.966;2022-12-10T15:59:05;035;027;
26720;PMS1003;15950;51.112;6.966;2022-12-10T16:02:10;035;025;
26720;PMS1003;15950;51.112;6.966;2022-12-10T16:08:08;027;020;
26720;PMS1003;15950;51.112;6.966;2022-12-10T16:11:11;033;026;
26720;PMS1003;15950;51.112;6.966;2022-12-10T16:14:05;033;023;
26720;PMS1003;15950;51.112;6.966;2022-12-10T16:17:05;035;025;
26720;PMS1003;15950;51.112;6.966;2022-12-10T16:20:24;037;026;
26720;PMS1003;15950;51.112;6.966;2022-12-10T16:23:05;035;031;
26720;PMS1003;15950;51.112;6.966;2022-12-10T16:29:05;033;023;
26720;PMS1003;15950;51.112;6.966;2022-12-10T16:32:05;033;029;
26720;PMS1003;15950;51.112;6.966;2022-12-10T16:35:05;037;026;
26720;PMS1003;15950;51.112;6.966;2022-12-10T16:38:05;036;027;
26720;PMS1003;15950;51.112;6.966;2022-12-10T16:41:09;037;026;
26720;PMS1003;15950;51.112;6.966;2022-12-10T16:44:05;038;029;
26720;PMS1003;15950;51.112;6.966;2022-12-10T16:47:10;034;024;
26720;PMS1003;15950;51.112;6.966;2022-12-10T16:50:05;037;026;
26720;PMS1003;15950;51.112;6.966;2022-12-10T16:56:06;037;026;
26720;PMS1003;15950;51.112;6.966;2022-12-10T16:59:05;041;031;
26720;PMS1003;15950;51.112;6.966;2022-12-10T17:02:09;032;023;
26720;PMS1003;15950;51.112;6.966;2022-12-10T17:05:10;037;026;
26720;PMS1003;15950;51.112;6.966;2022-12-10T17:08:05;032;026;
26720;PMS1003;15950;51.112;6.966;2022-12-10T17:14:06;031;025;
26720;PMS1003;15950;51.112;6.966;2022-12-10T17:17:06;032;024;
26720;PMS1003;15950;51.112;6.966;2022-12-10T17:20:10;034;024;
26720;PMS1003;15950;51.112;6.966;2022-12-10T17:23:05;031;022;
26720;PMS1003;15950;51.112;6.966;2022-12-10T17:26:05;039;031;
26720;PMS1003;15950;51.112;6.966;2022-12-10T17:29:08;042;030;
26720;PMS1003;15950;51.112;6.966;2022-12-10T17:32:05;034;024;
26720;PMS1003;15950;51.112;6.966;2022-12-10T17:35:05;027;019;
26720;PMS1003;15950;51.112;6.966;2022-12-10T17:38:05;034;024;
26720;PMS1003;15950;51.112;6.966;2022-12-10T17:41:05;044;031;
26720;PMS1003;15950;51.112;6.966;2022-12-10T17:44:05;041;031;
26720;PMS1003;15950;51.112;6.966;2022-12-10T17:53:06;034;025;
26720;PMS1003;15950;51.112;6.966;2022-12-10T17:56:09;038;030;
26720;PMS1003;15950;51.112;6.966;2022-12-10T17:59:05;041;029;
26720;PMS1003;15950;51.112;6.966;2022-12-10T18:02:07;038;027;
26720;PMS1003;15950;51.112;6.966;2022-12-10T18:05:05;037;026;
26720;PMS1003;15950;51.112;6.966;2022-12-10T18:08:05;042;031;
26720;PMS1003;15950;51.112;6.966;2022-12-10T18:11:05;043;031;
26720;PMS1003;15950;51.112;6.966;2022-12-10T18:14:05;040;029;
26720;PMS1003;15950;51.112;6.966;2022-12-10T18:17:14;043;032;
26720;PMS1003;15950;51.112;6.966;2022-12-10T18:20:05;040;031;
26720;PMS1003;15950;51.112;6.966;2022-12-10T18:23:06;041;029;
26720;PMS1003;15950;51.112;6.966;2022-12-10T18:29:05;035;025;
26720;PMS1003;15950;51.112;6.966;2022-12-10T18:32:05;040;031;
26720;PMS1003;15950;51.112;6.966;2022-12-10T18:35:05;036;027;
26720;PMS1003;15950;51.112;6.966;2022-12-10T18:38:05;041;030;
26720;PMS1003;15950;51.112;6.966;2022-12-10T18:41:09;040;033;
26720;PMS1003;15950;51.112;6.966;2022-12-10T18:44:05;037;026;
26720;PMS1003;15950;51.112;6.966;2022-12-10T18:47:07;038;029;
26720;PMS1003;15950;51.112;6.966;2022-12-10T18:50:09;041;029;
26720;PMS1003;15950;51.112;6.966;2022-12-10T18:53:05;037;026;
26720;PMS1003;15950;51.112;6.966;2022-12-10T18:56:05;038;029;
26720;PMS1003;15950;51.112;6.966;2022-12-10T18:59:06;037;026;
26720;PMS1003;15950;51.112;6.966;2022-12-10T19:02:05;036;028;
26720;PMS1003;15950;51.112;6.966;2022-12-10T19:05:05;043;033;
26720;PMS1003;15950;51.112;6.966;2022-12-10T19:08:05;038;027;
26720;PMS1003;15950;51.112;6.966;2022-12-10T19:11:05;038;027;
26720;PMS1003;15950;51.112;6.966;2022-12-10T19:14:05;041;030;
26720;PMS1003;15950;51.112;6.966;2022-12-10T19:17:05;037;029;
26720;PMS1003;15950;51.112;6.966;2022-12-10T19:20:15;035;026;
26720;PMS1003;15950;51.112;6.966;2022-12-10T19:23:06;038;031;
26720;PMS1003;15950;51.112;6.966;2022-12-10T19:29:11;034;024;
26720;PMS1003;15950;51.112;6.966;2022-12-10T19:32:05;027;019;
26720;PMS1003;15950;51.112;6.966;2022-12-10T19:35:05;041;029;
26720;PMS1003;15950;51.112;6.966;2022-12-10T19:38:05;035;029;
26720;PMS1003;15950;51.112;6.966;2022-12-10T19:41:05;035;025;
26720;PMS1003;15950;51.112;6.966;2022-12-10T19:44:05;034;024;
26720;PMS1003;15950;51.112;6.966;2022-12-10T19:47:09;036;027;
26720;PMS1003;15950;51.112;6.966;2022-12-10T19:50:05;027;019;
26720;PMS1003;15950;51.112;6.966;2022-12-10T19:53:05;031;024;
26720;PMS1003;15950;51.112;6.966;2022-12-10T19:56:48;033;023;
26720;PMS1003;15950;51.112;6.966;2022-12-10T19:59:09;033;024;
26720;PMS1003;15950;51.112;6.966;2022-12-10T20:02:05;027;019;
26720;PMS1003;15950;51.112;6.966;2022-12-10T20:05:05;032;025;
26720;PMS1003;15950;51.112;6.966;2022-12-10T20:08:05;030;025;
26720;PMS1003;15950;51.112;6.966;2022-12-10T20:11:05;034;025;
26720;PMS1003;15950;51.112;6.966;2022-12-10T20:14:05;036;027;
26720;PMS1003;15950;51.112;6.966;2022-12-10T20:17:05;041;029;
26720;PMS1003;15950;51.112;6.966;2022-12-10T20:20:05;031;023;
26720;PMS1003;15950;51.112;6.966;2022-12-10T20:23:05;027;019;
26720;PMS1003;15950;51.112;6.966;2022-12-10T20:26:06;028;021;
26720;PMS1003;15950;51.112;6.966;2022-12-10T20:32:05;024;017;
26720;PMS1003;15950;51.112;6.966;2022-12-10T20:35:05;037;029;
26720;PMS1003;15950;51.112;6.966;2022-12-10T20:38:05;030;022;
26720;PMS1003;15950;51.112;6.966;2022-12-10T20:41:05;032;024;
26720;PMS1003;15950;51.112;6.966;2022-12-10T20:44:05;035;027;
26720;PMS1003;15950;51.112;6.966;2022-12-10T20:47:05;033;025;
26720;PMS1003;15950;51.112;6.966;2022-12-10T20:50:05;029;023;
26720;PMS1003;15950;51.112;6.966;2022-12-10T20:53:05;034;024;
26720;PMS1003;15950;51.112;6.966;2022-12-10T20:56:08;030;021;
26720;PMS1003;15950;51.112;6.966;2022-12-10T20:59:05;030;021;
26720;PMS1003;15950;51.112;6.966;2022-12-10T21:02:05;038;027;
26720;PMS1003;15950;51.112;6.966;2022-12-10T21:05:05;034;024;
26720;PMS1003;15950;51.112;6.966;2022-12-10T21:08:05;027;019;
26720;PMS1003;15950;51.112;6.966;2022-12-10T21:11:05;036;026;
26720;PMS1003;15950;51.112;6.966;2022-12-10T21:14:05;033;023;
26720;PMS1003;15950;51.112;6.966;2022-12-10T21:17:05;034;024;
26720;PMS1003;15950;51.112;6.966;2022-12-10T21:20:05;034;024;
26720;PMS1003;15950;51.112;6.966;2022-12-10T21:23:05;034;025;
26720;PMS1003;15950;51.112;6.966;2022-12-10T21:26:05;031;022;
26720;PMS1003;15950;51.112;6.966;2022-12-10T21:29:05;028;024;
26720;PMS1003;15950;51.112;6.966;2022-12-10T21:32:05;033;027;
26720;PMS1003;15950;51.112;6.966;2022-12-10T21:35:05;036;026;
26720;PMS1003;15950;51.112;6.966;2022-12-10T21:38:05;027;022;
26720;PMS1003;15950;51.112;6.966;2022-12-10T21:41:06;033;025;
26720;PMS1003;15950;51.112;6.966;2022-12-10T21:44:05;030;022;
26720;PMS1003;15950;51.112;6.966;2022-12-10T21:47:05;030;021;
26720;PMS1003;15950;51.112;6.966;2022-12-10T21:50:05;030;024;
26720;PMS1003;15950;51.112;6.966;2022-12-10T21:53:05;024;017;
26720;PMS1003;15950;51.112;6.966;2022-12-10T21:56:05;028;023;
26720;PMS1003;15950;51.112;6.966;2022-12-10T21:59:05;030;024;
26720;PMS1003;15950;51.112;6.966;2022-12-10T22:02:05;028;020;
26720;PMS1003;15950;51.112;6.966;2022-12-10T22:05:05;028;023;
26720;PMS1003;15950;51.112;6.966;2022-12-10T22:08:05;035;025;
26720;PMS1003;15950;51.112;6.966;2022-12-10T22:11:05;026;018;
26720;PMS1003;15950;51.112;6.966;2022-12-10T22:14:05;034;024;
26720;PMS1003;15950;51.112;6.966;2022-12-10T22:17:05;029;022;
26720;PMS1003;15950;51.112;6.966;2022-12-10T22:20:05;031;022;
26720;PMS1003;15950;51.112;6.966;2022-12-10T22:23:05;031;023;
26720;PMS1003;15950;51.112;6.966;2022-12-10T22:26:06;037;026;
26720;PMS1003;15950;51.112;6.966;2022-12-10T22:29:05;035;025;
26720;PMS1003;15950;51.112;6.966;2022-12-10T22:32:05;042;030;
26720;PMS1003;15950;51.112;6.966;2022-12-10T22:35:05;034;024;
26720;PMS1003;15950;51.112;6.966;2022-12-10T22:38:05;029;023;
26720;PMS1003;15950;51.112;6.966;2022-12-10T22:41:05;037;029;
26720;PMS1003;15950;51.112;6.966;2022-12-10T22:44:05;036;026;
26720;PMS1003;15950;51.112;6.966;2022-12-10T22:47:05;040;028;
26720;PMS1003;15950;51.112;6.966;2022-12-10T22:50:05;034;033;
26720;PMS1003;15950;51.112;6.966;2022-12-10T22:53:05;031;022;
26720;PMS1003;15950;51.112;6.966;2022-12-10T22:56:05;038;030;
26720;PMS1003;15950;51.112;6.966;2022-12-10T22:59:05;035;025;
26720;PMS1003;15950;51.112;6.966;2022-12-10T23:02:05;033;023;
26720;PMS1003;15950;51.112;6.966;2022-12-10T23:05:05;033;027;
26720;PMS1003;15950;51.112;6.966;2022-12-10T23:08:05;037;031;
26720;PMS1003;15950;51.112;6.966;2022-12-10T23:11:05;037;026;
26720;PMS1003;15950;51.112;6.966;2022-12-10T23:14:05;033;023;
26720;PMS1003;15950;51.112;6.966;2022-12-10T23:17:05;031;022;
26720;PMS1003;15950;51.112;6.966;2022-12-10T23:20:05;039;030;
26720;PMS1003;15950;51.112;6.966;2022-12-10T23:23:05;030;021;